createdAt,value
2023-04-30T00:00:54.808Z,8.30
2023-04-30T00:01:57.249Z,7.10
2023-04-30T00:02:59.930Z,7.20
2023-04-30T00:04:02.189Z,6.60
2023-04-30T00:05:05.244Z,7.70
2023-04-30T00:06:08.656Z,5.60
2023-04-30T00:07:11.055Z,6.70
2023-04-30T00:08:13.199Z,6.70
2023-04-30T00:09:15.417Z,3.50
2023-04-30T00:10:18.395Z,5.30
2023-04-30T00:11:22.552Z,7.70
2023-04-30T00:12:24.761Z,5.90
2023-04-30T00:13:27.532Z,5.80
2023-04-30T00:14:30.206Z,6.80
2023-04-30T00:15:32.285Z,7.20
2023-04-30T00:16:34.687Z,5.80
2023-04-30T00:17:37.402Z,7.30
2023-04-30T00:18:39.520Z,6.10
2023-04-30T00:19:42.113Z,5.50
2023-04-30T00:20:44.279Z,5.50
2023-04-30T00:21:46.450Z,5.20
2023-04-30T00:23:57.921Z,6.30
2023-04-30T00:25:00.481Z,5.60
2023-04-30T00:26:02.646Z,7.10
2023-04-30T00:27:04.678Z,6.50
2023-04-30T00:28:06.916Z,5.70
2023-04-30T00:29:10.442Z,6.60
2023-04-30T00:30:13.899Z,5.70
2023-04-30T00:31:16.214Z,5.90
2023-04-30T00:32:18.570Z,4.70
2023-04-30T00:33:21.386Z,5.10
2023-04-30T00:35:38.781Z,6.00
2023-04-30T00:36:40.956Z,5.30
2023-04-30T00:37:43.236Z,3.90
2023-04-30T00:38:45.282Z,3.30
2023-04-30T00:39:48.070Z,5.10
2023-04-30T00:40:50.420Z,4.82
2023-04-30T00:41:52.608Z,5.60
2023-04-30T00:42:55.124Z,6.40
2023-04-30T00:43:57.698Z,6.30
2023-04-30T00:44:59.971Z,6.10
2023-04-30T00:46:02.225Z,5.30
2023-04-30T00:47:04.774Z,5.30
2023-04-30T00:48:07.161Z,5.50
2023-04-30T00:49:09.935Z,5.20
2023-04-30T00:50:12.991Z,5.60
2023-04-30T00:51:15.581Z,7.40
2023-04-30T00:52:18.288Z,5.30
2023-04-30T00:53:20.442Z,6.50
2023-04-30T00:54:22.955Z,6.00
2023-04-30T00:55:25.721Z,5.20
2023-04-30T00:56:31.205Z,5.80
2023-04-30T00:57:34.014Z,5.10
2023-04-30T00:58:36.388Z,5.70
2023-04-30T00:59:41.030Z,5.20
2023-04-30T01:00:45.221Z,5.00
2023-04-30T01:01:47.712Z,6.50
2023-04-30T01:02:50.499Z,5.40
2023-04-30T01:03:53.219Z,6.70
2023-04-30T01:04:55.788Z,6.50
2023-04-30T01:05:58.084Z,5.80
2023-04-30T01:07:00.420Z,6.30
2023-04-30T01:08:03.883Z,6.20
2023-04-30T01:09:06.596Z,5.30
2023-04-30T01:10:11.867Z,5.90
2023-04-30T01:11:20.498Z,5.90
2023-04-30T01:12:42.933Z,5.90
2023-04-30T01:13:52.046Z,5.70
2023-04-30T01:15:30.839Z,5.40
2023-04-30T01:16:35.747Z,5.60
2023-04-30T01:19:12.022Z,3.60
2023-04-30T01:20:14.682Z,6.10
2023-04-30T01:21:18.371Z,6.20
2023-04-30T01:23:42.434Z,6.20
2023-04-30T01:25:08.442Z,5.20
2023-04-30T01:26:34.379Z,6.10
2023-04-30T01:28:12.993Z,4.90
2023-04-30T01:29:16.624Z,5.60
2023-04-30T01:30:20.162Z,4.60
2023-04-30T01:31:23.936Z,4.80
2023-04-30T01:32:26.203Z,5.20
2023-04-30T01:33:28.576Z,4.10
2023-04-30T01:34:30.852Z,4.40
2023-04-30T01:35:37.089Z,5.60
2023-04-30T01:36:58.194Z,4.80
2023-04-30T01:40:11.372Z,6.40
2023-04-30T01:41:32.938Z,6.00
2023-04-30T01:42:54.080Z,5.40
2023-04-30T01:44:19.772Z,4.80
2023-04-30T01:45:46.610Z,5.60
2023-04-30T01:48:38.867Z,4.50
2023-04-30T01:49:50.542Z,4.70
2023-04-30T01:51:14.573Z,4.70
2023-04-30T01:52:32.617Z,4.50
2023-04-30T01:55:02.699Z,6.20
2023-04-30T01:56:12.309Z,6.20
2023-04-30T01:58:28.056Z,4.90
2023-04-30T01:59:35.108Z,5.20
2023-04-30T02:00:38.095Z,4.20
2023-04-30T02:01:40.333Z,5.64
2023-04-30T02:02:42.797Z,4.80
2023-04-30T02:03:45.497Z,4.90
2023-04-30T02:04:47.901Z,4.60
2023-04-30T02:05:50.287Z,6.60
2023-04-30T02:06:52.545Z,6.20
2023-04-30T02:07:57.326Z,4.70
2023-04-30T02:08:59.548Z,6.50
2023-04-30T02:10:02.354Z,5.40
2023-04-30T02:11:04.745Z,6.20
2023-04-30T02:12:07.497Z,4.80
2023-04-30T02:13:09.646Z,5.30
2023-04-30T02:14:11.717Z,6.90
2023-04-30T02:15:14.301Z,5.20
2023-04-30T02:16:17.903Z,6.90
2023-04-30T02:17:21.275Z,5.70
2023-04-30T02:18:23.794Z,5.50
2023-04-30T02:19:26.034Z,6.10
2023-04-30T02:20:29.306Z,5.45
2023-04-30T02:21:31.490Z,5.00
2023-04-30T02:22:34.479Z,6.00
2023-04-30T02:23:36.598Z,1.27
2023-04-30T02:24:38.870Z,5.10
2023-04-30T02:25:41.572Z,5.90
2023-04-30T02:26:43.850Z,6.18
2023-04-30T02:27:46.053Z,5.40
2023-04-30T02:28:48.599Z,5.20
2023-04-30T02:29:51.834Z,4.80
2023-04-30T02:30:54.740Z,4.00
2023-04-30T02:31:58.399Z,6.00
2023-04-30T02:33:00.796Z,4.90
2023-04-30T02:34:04.945Z,2.80
2023-04-30T02:35:07.638Z,4.90
2023-04-30T02:36:10.455Z,2.70
2023-04-30T02:37:13.057Z,5.00
2023-04-30T02:38:15.331Z,5.50
2023-04-30T02:39:18.721Z,5.80
2023-04-30T02:40:21.687Z,5.30
2023-04-30T02:41:24.220Z,3.27
2023-04-30T02:42:26.399Z,4.40
2023-04-30T02:43:28.566Z,4.30
2023-04-30T02:44:30.737Z,4.30
2023-04-30T02:45:32.926Z,4.20
2023-04-30T02:46:35.695Z,5.80
2023-04-30T02:47:37.766Z,4.70
2023-04-30T02:48:40.139Z,4.40
2023-04-30T02:49:42.945Z,4.00
2023-04-30T02:50:45.153Z,5.70
2023-04-30T02:51:47.644Z,5.20
2023-04-30T02:52:49.900Z,3.90
2023-04-30T02:53:52.100Z,4.90
2023-04-30T02:54:54.352Z,4.40
2023-04-30T02:55:56.520Z,5.30
2023-04-30T02:56:58.669Z,4.90
2023-04-30T02:58:00.664Z,4.67
2023-04-30T02:59:03.156Z,5.00
2023-04-30T03:00:08.683Z,4.09
2023-04-30T03:01:11.331Z,4.70
2023-04-30T03:02:13.621Z,3.90
2023-04-30T03:03:16.216Z,5.50
2023-04-30T03:04:19.360Z,5.20
2023-04-30T03:05:22.196Z,5.30
2023-04-30T03:06:24.620Z,3.50
2023-04-30T03:07:26.862Z,5.70
2023-04-30T03:08:29.028Z,4.80
2023-04-30T03:09:31.663Z,4.50
2023-04-30T03:10:34.404Z,5.70
2023-04-30T03:11:36.639Z,5.30
2023-04-30T03:12:38.844Z,5.40
2023-04-30T03:13:42.417Z,5.30
2023-04-30T03:14:44.781Z,4.00
2023-04-30T03:15:46.914Z,5.30
2023-04-30T03:16:50.291Z,5.00
2023-04-30T03:17:52.587Z,4.20
2023-04-30T03:18:56.016Z,4.20
2023-04-30T03:19:58.406Z,5.40
2023-04-30T03:21:00.909Z,6.00
2023-04-30T03:22:03.080Z,5.00
2023-04-30T03:23:06.574Z,5.00
2023-04-30T03:25:18.141Z,4.70
2023-04-30T03:26:21.156Z,4.80
2023-04-30T03:27:23.459Z,4.40
2023-04-30T03:28:26.185Z,4.70
2023-04-30T03:29:28.437Z,4.20
2023-04-30T03:30:31.593Z,4.80
2023-04-30T03:31:34.273Z,4.00
2023-04-30T03:32:37.032Z,5.09
2023-04-30T03:33:39.548Z,4.30
2023-04-30T03:34:41.908Z,5.00
2023-04-30T03:35:44.060Z,4.00
2023-04-30T03:36:46.521Z,5.40
2023-04-30T03:37:49.180Z,4.00
2023-04-30T03:38:51.394Z,3.50
2023-04-30T03:39:53.615Z,3.80
2023-04-30T03:40:56.211Z,3.70
2023-04-30T03:41:58.464Z,4.00
2023-04-30T03:43:00.751Z,4.10
2023-04-30T03:44:03.490Z,3.80
2023-04-30T03:45:06.916Z,5.10
2023-04-30T03:46:09.661Z,4.50
2023-04-30T03:47:11.946Z,4.70
2023-04-30T03:48:14.183Z,4.50
2023-04-30T03:49:16.502Z,4.10
2023-04-30T03:50:19.409Z,5.30
2023-04-30T03:51:21.738Z,4.18
2023-04-30T03:52:24.061Z,4.90
2023-04-30T03:53:26.875Z,4.55
2023-04-30T03:54:29.805Z,4.30
2023-04-30T03:55:33.391Z,4.45
2023-04-30T03:56:36.703Z,4.20
2023-04-30T03:57:39.689Z,3.50
2023-04-30T03:58:43.036Z,4.70
2023-04-30T03:59:45.326Z,3.70
2023-04-30T04:00:47.985Z,4.10
2023-04-30T04:01:50.435Z,4.30
2023-04-30T04:02:52.952Z,3.90
2023-04-30T04:03:56.360Z,3.55
2023-04-30T04:04:58.538Z,4.00
2023-04-30T04:06:00.806Z,4.00
2023-04-30T04:07:03.163Z,4.60
2023-04-30T04:08:05.615Z,3.60
2023-04-30T04:09:07.937Z,4.10
2023-04-30T04:10:10.410Z,4.60
2023-04-30T04:11:12.589Z,3.20
2023-04-30T04:12:14.745Z,3.80
2023-04-30T04:13:17.013Z,3.90
2023-04-30T04:14:19.594Z,2.70
2023-04-30T04:15:22.192Z,4.10
2023-04-30T04:16:24.713Z,4.00
2023-04-30T04:17:27.455Z,3.60
2023-04-30T04:18:30.109Z,3.80
2023-04-30T04:19:32.375Z,3.80
2023-04-30T04:20:35.002Z,3.20
2023-04-30T04:21:38.364Z,4.00
2023-04-30T04:22:42.483Z,3.10
2023-04-30T04:23:44.983Z,4.00
2023-04-30T04:24:47.081Z,4.70
2023-04-30T04:25:52.166Z,3.50
2023-04-30T04:26:55.967Z,2.80
2023-04-30T04:27:58.287Z,3.36
2023-04-30T04:29:00.371Z,3.10
2023-04-30T04:30:03.872Z,2.40
2023-04-30T04:31:06.112Z,3.00
2023-04-30T04:32:08.293Z,2.90
2023-04-30T04:33:10.762Z,2.40
2023-04-30T04:34:12.950Z,3.50
2023-04-30T04:35:15.852Z,3.80
2023-04-30T04:36:18.262Z,3.30
2023-04-30T04:37:20.451Z,3.00
2023-04-30T04:38:23.617Z,3.00
2023-04-30T04:39:25.932Z,2.90
2023-04-30T04:40:29.877Z,3.55
2023-04-30T04:41:34.230Z,2.40
2023-04-30T04:42:38.260Z,3.00
2023-04-30T04:43:41.012Z,3.30
2023-04-30T04:44:44.314Z,4.50
2023-04-30T04:45:46.511Z,2.80
2023-04-30T04:46:48.815Z,4.70
2023-04-30T04:47:51.231Z,3.20
2023-04-30T04:48:54.112Z,3.55
2023-04-30T04:49:56.468Z,5.10
2023-04-30T04:50:59.343Z,4.60
2023-04-30T04:52:02.377Z,4.20
2023-04-30T04:53:04.640Z,4.20
2023-04-30T04:54:06.939Z,4.40
2023-04-30T04:55:09.550Z,5.00
2023-04-30T04:56:12.525Z,4.00
2023-04-30T04:57:15.269Z,4.80
2023-04-30T04:58:17.430Z,5.80
2023-04-30T04:59:21.009Z,5.60
2023-04-30T05:00:24.558Z,5.50
2023-04-30T05:01:26.888Z,5.70
2023-04-30T05:02:30.219Z,5.50
2023-04-30T05:03:34.108Z,5.10
2023-04-30T05:04:36.878Z,5.40
2023-04-30T05:05:48.578Z,5.90
2023-04-30T05:06:50.904Z,6.00
2023-04-30T05:07:53.159Z,4.50
2023-04-30T05:08:55.419Z,5.40
2023-04-30T05:09:57.734Z,5.70
2023-04-30T05:11:00.697Z,4.80
2023-04-30T05:12:03.190Z,4.90
2023-04-30T05:13:05.374Z,4.60
2023-04-30T05:14:07.481Z,4.40
2023-04-30T05:15:15.958Z,4.00
2023-04-30T05:16:20.518Z,2.00
2023-04-30T05:17:23.042Z,4.00
2023-04-30T05:18:27.788Z,3.90
2023-04-30T05:19:29.824Z,3.45
2023-04-30T05:20:31.936Z,4.30
2023-04-30T05:21:33.953Z,2.90
2023-04-30T05:22:36.165Z,3.70
2023-04-30T05:23:38.346Z,3.10
2023-04-30T05:24:40.563Z,3.90
2023-04-30T05:25:45.485Z,3.60
2023-04-30T05:26:47.909Z,3.20
2023-04-30T05:27:50.067Z,4.40
2023-04-30T05:28:52.459Z,3.20
2023-04-30T05:29:55.421Z,3.20
2023-04-30T05:30:58.108Z,4.20
2023-04-30T05:32:00.923Z,3.40
2023-04-30T05:33:03.427Z,3.20
2023-04-30T05:34:06.092Z,3.30
2023-04-30T05:35:08.810Z,2.91
2023-04-30T05:36:11.778Z,2.80
2023-04-30T05:37:14.049Z,3.00
2023-04-30T05:38:16.401Z,3.90
2023-04-30T05:39:18.675Z,3.30
2023-04-30T05:40:21.065Z,3.30
2023-04-30T05:41:23.079Z,3.70
2023-04-30T05:42:25.362Z,2.90
2023-04-30T05:43:27.558Z,2.70
2023-04-30T05:44:29.730Z,3.00
2023-04-30T05:45:32.363Z,1.90
2023-04-30T05:46:35.878Z,3.60
2023-04-30T05:47:38.249Z,3.00
2023-04-30T05:48:40.842Z,3.50
2023-04-30T05:49:46.036Z,3.30
2023-04-30T05:50:48.398Z,2.80
2023-04-30T05:51:53.621Z,2.80
2023-04-30T05:52:56.359Z,0.00
2023-04-30T05:53:58.637Z,2.73
2023-04-30T05:55:01.345Z,2.90
2023-04-30T05:56:05.995Z,3.36
2023-04-30T05:57:08.381Z,3.50
2023-04-30T05:59:44.056Z,3.40
2023-04-30T06:00:50.981Z,2.20
2023-04-30T06:01:55.603Z,3.00
2023-04-30T06:02:57.917Z,3.00
2023-04-30T06:04:00.619Z,2.60
2023-04-30T06:06:21.042Z,3.20
2023-04-30T06:07:23.923Z,3.00
2023-04-30T06:08:26.136Z,2.60
2023-04-30T06:09:28.181Z,2.70
2023-04-30T06:10:31.408Z,0.40
2023-04-30T06:11:35.582Z,2.70
2023-04-30T06:12:38.044Z,3.00
2023-04-30T06:13:40.734Z,2.30
2023-04-30T06:14:43.287Z,2.80
2023-04-30T06:17:01.242Z,3.40
2023-04-30T06:18:03.655Z,2.70
2023-04-30T06:20:24.216Z,2.90
2023-04-30T06:21:29.537Z,3.00
2023-04-30T06:22:32.276Z,2.20
2023-04-30T06:23:34.430Z,2.50
2023-04-30T06:24:37.231Z,2.50
2023-04-30T06:25:40.607Z,2.55
2023-04-30T06:26:43.666Z,3.20
2023-04-30T06:27:46.435Z,3.10
2023-04-30T06:28:48.994Z,3.20
2023-04-30T06:29:51.066Z,2.30
2023-04-30T06:30:54.218Z,2.70
2023-04-30T06:31:57.684Z,2.90
2023-04-30T06:32:59.943Z,1.70
2023-04-30T06:34:02.082Z,2.40
2023-04-30T06:35:05.243Z,2.00
2023-04-30T06:36:08.695Z,2.30
2023-04-30T06:37:10.942Z,2.64
2023-04-30T06:38:17.596Z,2.50
2023-04-30T06:39:19.812Z,3.00
2023-04-30T06:40:22.152Z,3.00
2023-04-30T06:41:24.213Z,2.50
2023-04-30T06:42:26.837Z,2.60
2023-04-30T06:43:28.976Z,1.70
2023-04-30T06:44:31.698Z,2.20
2023-04-30T06:45:34.511Z,2.36
2023-04-30T06:46:36.949Z,2.55
2023-04-30T06:47:39.536Z,2.60
2023-04-30T06:48:41.824Z,2.90
2023-04-30T06:49:44.324Z,3.00
2023-04-30T06:50:46.498Z,1.70
2023-04-30T06:51:49.050Z,3.10
2023-04-30T06:52:53.458Z,2.60
2023-04-30T06:53:56.923Z,2.20
2023-04-30T06:55:00.059Z,2.00
2023-04-30T06:56:02.387Z,2.40
2023-04-30T06:57:04.487Z,1.40
2023-04-30T06:58:06.659Z,2.90
2023-04-30T06:59:08.792Z,2.50
2023-04-30T07:00:12.401Z,2.70
2023-04-30T07:01:15.220Z,2.70
2023-04-30T07:02:18.425Z,2.18
2023-04-30T07:03:21.794Z,1.70
2023-04-30T07:04:24.076Z,2.20
2023-04-30T07:05:26.581Z,1.80
2023-04-30T07:06:28.867Z,2.00
2023-04-30T07:07:31.549Z,3.00
2023-04-30T07:08:33.630Z,2.50
2023-04-30T07:09:35.856Z,2.00
2023-04-30T07:10:38.305Z,2.00
2023-04-30T07:11:40.924Z,2.30
2023-04-30T07:12:43.645Z,2.80
2023-04-30T07:13:46.446Z,2.00
2023-04-30T07:14:48.870Z,2.40
2023-04-30T07:15:51.608Z,1.80
2023-04-30T07:16:54.581Z,2.27
2023-04-30T07:17:56.823Z,1.36
2023-04-30T07:20:17.131Z,3.30
2023-04-30T07:21:19.476Z,3.10
2023-04-30T07:22:22.189Z,2.20
2023-04-30T07:23:24.882Z,1.80
2023-04-30T07:24:27.702Z,1.80
2023-04-30T07:25:30.433Z,1.73
2023-04-30T07:26:32.660Z,2.20
2023-04-30T07:27:34.644Z,2.10
2023-04-30T07:28:37.107Z,1.89
2023-04-30T07:29:39.321Z,2.50
2023-04-30T07:30:41.523Z,2.60
2023-04-30T07:31:44.417Z,1.70
2023-04-30T07:32:48.735Z,2.50
2023-04-30T07:33:51.303Z,2.50
2023-04-30T07:34:53.937Z,3.00
2023-04-30T07:35:56.076Z,3.30
2023-04-30T07:36:59.062Z,2.80
2023-04-30T07:38:01.991Z,3.00
2023-04-30T07:39:04.952Z,2.73
2023-04-30T07:40:09.217Z,2.10
2023-04-30T07:41:11.812Z,2.20
2023-04-30T07:42:14.010Z,3.10
2023-04-30T07:43:16.380Z,2.50
2023-04-30T07:44:18.669Z,1.70
2023-04-30T07:45:21.350Z,1.80
2023-04-30T07:46:24.488Z,2.91
2023-04-30T07:47:26.807Z,2.00
2023-04-30T07:48:30.924Z,1.80
2023-04-30T07:49:34.352Z,2.40
2023-04-30T07:50:37.589Z,2.30
2023-04-30T07:51:40.365Z,2.80
2023-04-30T07:52:42.537Z,1.80
2023-04-30T07:53:44.716Z,1.50
2023-04-30T07:56:04.884Z,2.50
2023-04-30T07:57:07.667Z,1.90
2023-04-30T07:58:09.948Z,2.20
2023-04-30T07:59:15.916Z,1.20
2023-04-30T08:00:18.482Z,1.40
2023-04-30T08:01:20.983Z,2.10
2023-04-30T08:02:23.965Z,2.00
2023-04-30T08:03:26.522Z,1.80
2023-04-30T08:04:28.993Z,1.50
2023-04-30T08:05:32.115Z,2.80
2023-04-30T08:06:34.618Z,1.40
2023-04-30T08:07:37.041Z,1.80
2023-04-30T08:08:39.463Z,1.70
2023-04-30T08:09:43.855Z,2.40
2023-04-30T08:10:48.761Z,1.30
2023-04-30T08:11:51.580Z,2.00
2023-04-30T08:12:54.028Z,1.18
2023-04-30T08:13:57.026Z,1.00
2023-04-30T08:16:20.011Z,1.60
2023-04-30T08:17:22.514Z,1.50
2023-04-30T08:18:25.003Z,1.00
2023-04-30T08:19:27.450Z,0.70
2023-04-30T08:20:32.685Z,0.80
2023-04-30T08:21:35.617Z,0.70
2023-04-30T08:22:40.981Z,2.00
2023-04-30T08:23:46.455Z,2.10
2023-04-30T08:24:50.739Z,2.40
2023-04-30T08:25:58.192Z,1.60
2023-04-30T08:27:00.821Z,0.90
2023-04-30T08:28:03.548Z,1.30
2023-04-30T08:29:06.410Z,1.20
2023-04-30T08:30:13.150Z,1.00
2023-04-30T08:31:16.722Z,1.10
2023-04-30T08:32:20.081Z,2.60
2023-04-30T08:33:24.749Z,1.30
2023-04-30T08:34:30.872Z,0.70
2023-04-30T08:35:33.956Z,1.30
2023-04-30T08:36:36.415Z,1.30
2023-04-30T08:37:38.765Z,0.70
2023-04-30T08:38:44.285Z,1.60
2023-04-30T08:39:47.718Z,1.60
2023-04-30T08:42:21.587Z,2.60
2023-04-30T08:43:31.565Z,1.80
2023-04-30T08:44:37.244Z,1.70
2023-04-30T08:47:02.700Z,2.60
2023-04-30T08:48:12.818Z,1.80
2023-04-30T08:49:17.057Z,2.30
2023-04-30T08:50:24.804Z,1.80
2023-04-30T08:51:36.788Z,1.80
2023-04-30T08:52:40.096Z,1.10
2023-04-30T08:53:44.201Z,1.80
2023-04-30T08:54:47.774Z,1.80
2023-04-30T08:55:50.505Z,1.70
2023-04-30T08:56:54.983Z,1.91
2023-04-30T08:57:57.986Z,1.80
2023-04-30T08:59:00.395Z,2.00
2023-04-30T09:00:03.573Z,1.80
2023-04-30T09:01:08.546Z,2.20
2023-04-30T09:02:11.101Z,2.30
2023-04-30T09:03:16.010Z,1.70
2023-04-30T09:04:19.084Z,1.50
2023-04-30T09:05:23.122Z,1.64
2023-04-30T09:06:25.958Z,1.10
2023-04-30T09:07:30.653Z,1.70
2023-04-30T09:08:43.263Z,1.70
2023-04-30T09:09:46.138Z,1.50
2023-04-30T09:10:49.085Z,1.18
2023-04-30T09:11:51.781Z,1.73
2023-04-30T09:15:36.686Z,2.00
2023-04-30T09:18:13.302Z,1.00
2023-04-30T09:19:29.987Z,1.20
2023-04-30T09:20:32.864Z,1.70
2023-04-30T09:21:36.883Z,1.20
2023-04-30T09:22:41.632Z,1.50
2023-04-30T09:25:09.684Z,1.20
2023-04-30T09:26:20.073Z,1.00
2023-04-30T09:27:24.601Z,1.90
2023-04-30T09:28:27.657Z,1.40
2023-04-30T09:31:01.959Z,1.70
2023-04-30T09:32:11.362Z,1.30
2023-04-30T09:33:13.693Z,1.20
2023-04-30T09:34:15.899Z,1.20
2023-04-30T09:36:37.375Z,3.20
2023-04-30T09:40:46.943Z,3.50
2023-04-30T09:41:57.185Z,2.20
2023-04-30T09:43:12.863Z,1.30
2023-04-30T09:44:36.365Z,1.10
2023-04-30T09:45:45.193Z,0.90
2023-04-30T09:46:52.842Z,1.40
2023-04-30T09:48:16.315Z,2.00
2023-04-30T09:49:11.001Z,1.50
2023-04-30T09:50:17.191Z,0.80
2023-04-30T09:51:26.316Z,1.40
2023-04-30T09:52:30.402Z,1.90
2023-04-30T09:53:37.415Z,1.50
2023-04-30T09:54:41.008Z,0.80
2023-04-30T09:55:46.983Z,1.50
2023-04-30T09:56:50.813Z,1.40
2023-04-30T09:57:53.876Z,1.20
2023-04-30T09:58:57.573Z,0.80
2023-04-30T10:00:03.444Z,1.20
2023-04-30T10:01:11.360Z,1.50
2023-04-30T10:02:15.826Z,0.50
2023-04-30T10:03:23.101Z,1.40
2023-04-30T10:04:37.344Z,0.90
2023-04-30T10:05:45.001Z,0.10
2023-04-30T10:06:50.010Z,0.80
2023-04-30T10:07:56.021Z,0.90
2023-04-30T10:08:59.704Z,1.50
2023-04-30T10:10:10.020Z,0.80
2023-04-30T10:11:16.870Z,1.40
2023-04-30T10:12:25.565Z,1.00
2023-04-30T10:13:36.247Z,0.40
2023-04-30T10:14:47.374Z,1.10
2023-04-30T10:15:52.188Z,0.80
2023-04-30T10:18:33.761Z,2.30
2023-04-30T10:19:39.677Z,1.00
2023-04-30T10:20:47.185Z,0.90
2023-04-30T10:22:00.551Z,0.90
2023-04-30T10:23:02.994Z,0.70
2023-04-30T10:24:07.966Z,1.20
2023-04-30T10:25:10.160Z,0.80
2023-04-30T10:26:12.367Z,0.90
2023-04-30T10:27:14.603Z,0.60
2023-04-30T10:28:16.913Z,1.10
2023-04-30T10:29:23.546Z,0.50
2023-04-30T10:30:27.842Z,1.20
2023-04-30T10:32:58.389Z,1.90
2023-04-30T10:34:32.938Z,1.00
2023-04-30T10:36:58.961Z,1.50
2023-04-30T10:38:09.962Z,0.70
2023-04-30T10:39:13.731Z,0.60
2023-04-30T10:40:16.287Z,1.00
2023-04-30T10:41:19.547Z,1.10
2023-04-30T10:42:21.768Z,0.80
2023-04-30T10:43:25.162Z,1.10
2023-04-30T10:44:27.566Z,1.00
2023-04-30T10:45:37.075Z,0.60
2023-04-30T10:47:55.618Z,1.60
2023-04-30T10:48:58.017Z,1.00
2023-04-30T10:50:04.170Z,1.80
2023-04-30T10:51:08.673Z,1.90
2023-04-30T10:52:13.581Z,1.10
2023-04-30T10:54:36.716Z,1.00
2023-04-30T10:57:10.591Z,2.00
2023-04-30T11:01:26.791Z,1.50
2023-04-30T11:02:44.103Z,1.70
2023-04-30T11:04:07.342Z,1.70
2023-04-30T11:06:22.406Z,1.50
2023-04-30T11:07:30.475Z,2.00
2023-04-30T11:09:48.841Z,1.50
2023-04-30T11:10:59.036Z,1.40
2023-04-30T11:12:03.050Z,1.80
2023-04-30T11:13:11.058Z,1.30
2023-04-30T11:15:30.487Z,4.60
2023-04-30T11:16:35.010Z,5.10
2023-04-30T11:17:40.175Z,6.70
2023-04-30T11:18:49.617Z,7.09
2023-04-30T11:19:53.657Z,9.10
2023-04-30T11:20:57.420Z,8.80
2023-04-30T11:22:06.261Z,10.00
2023-04-30T11:25:03.269Z,12.90
2023-04-30T11:26:06.911Z,10.20
2023-04-30T11:27:15.198Z,9.40
2023-04-30T11:28:26.498Z,9.90
2023-04-30T11:29:28.956Z,7.90
2023-04-30T11:30:33.431Z,7.10
2023-04-30T11:31:35.908Z,7.00
2023-04-30T11:32:39.277Z,5.20
2023-04-30T11:33:42.038Z,5.90
2023-04-30T11:34:44.261Z,5.00
2023-04-30T11:35:50.354Z,4.10
2023-04-30T11:36:54.754Z,4.30
2023-04-30T11:37:58.013Z,3.10
2023-04-30T11:39:01.387Z,5.30
2023-04-30T11:40:06.175Z,6.20
2023-04-30T11:41:12.032Z,6.60
2023-04-30T11:42:18.491Z,7.70
2023-04-30T11:43:27.605Z,8.30
2023-04-30T11:44:29.777Z,10.30
2023-04-30T11:45:32.104Z,8.40
2023-04-30T11:46:34.825Z,1.00
2023-04-30T11:47:44.207Z,10.10
2023-04-30T11:48:47.355Z,9.50
2023-04-30T11:49:51.604Z,11.40
2023-04-30T11:50:53.958Z,12.60
2023-04-30T11:51:56.297Z,13.10
2023-04-30T11:52:59.399Z,12.30
2023-04-30T11:54:02.786Z,14.00
2023-04-30T11:55:12.449Z,12.30
2023-04-30T11:57:56.260Z,13.70
2023-04-30T11:58:58.359Z,10.60
2023-04-30T12:00:08.569Z,9.80
2023-04-30T12:01:11.693Z,8.80
2023-04-30T12:03:27.135Z,10.80
2023-04-30T12:04:31.324Z,9.50
2023-04-30T12:05:34.268Z,9.40
2023-04-30T12:06:40.597Z,8.50
2023-04-30T12:07:47.775Z,8.60
2023-04-30T12:08:53.423Z,8.20
2023-04-30T12:09:55.912Z,8.70
2023-04-30T12:10:58.736Z,8.30
2023-04-30T12:12:01.242Z,7.80
2023-04-30T12:13:03.919Z,7.90
2023-04-30T12:14:08.910Z,6.20
2023-04-30T12:15:15.961Z,6.30
2023-04-30T12:16:18.715Z,5.70
2023-04-30T12:17:34.476Z,5.40
2023-04-30T12:18:36.738Z,5.90
2023-04-30T12:19:39.243Z,5.00
2023-04-30T12:20:42.189Z,5.60
2023-04-30T12:21:49.259Z,4.90
2023-04-30T12:22:51.900Z,4.70
2023-04-30T12:23:54.248Z,5.00
2023-04-30T12:24:58.982Z,4.50
2023-04-30T12:26:01.152Z,4.00
2023-04-30T12:27:04.268Z,5.30
2023-04-30T12:28:09.778Z,4.60
2023-04-30T12:29:16.514Z,4.90
2023-04-30T12:30:21.191Z,4.60
2023-04-30T12:32:39.047Z,4.70
2023-04-30T12:33:41.265Z,2.80
2023-04-30T12:34:43.329Z,3.10
2023-04-30T12:35:45.861Z,4.70
2023-04-30T12:36:51.168Z,4.36
2023-04-30T12:39:19.923Z,5.20
2023-04-30T12:40:26.330Z,5.20
2023-04-30T12:42:46.485Z,5.60
2023-04-30T12:43:48.709Z,6.70
2023-04-30T12:46:26.905Z,5.70
2023-04-30T12:47:29.697Z,5.20
2023-04-30T12:48:35.580Z,4.73
2023-04-30T12:49:38.873Z,4.50
2023-04-30T12:50:41.253Z,4.50
2023-04-30T12:51:43.433Z,4.10
2023-04-30T12:52:46.391Z,4.90
2023-04-30T12:53:48.792Z,4.10
2023-04-30T12:54:50.989Z,4.50
2023-04-30T12:56:14.004Z,4.70
2023-04-30T12:57:17.376Z,4.50
2023-04-30T12:58:20.748Z,3.40
2023-04-30T12:59:23.029Z,5.00
2023-04-30T13:00:28.791Z,4.50
2023-04-30T13:01:31.210Z,4.80
2023-04-30T13:02:36.037Z,4.60
2023-04-30T13:03:38.667Z,5.00
2023-04-30T13:04:41.400Z,5.50
2023-04-30T13:07:03.750Z,5.80
2023-04-30T13:08:06.836Z,4.70
2023-04-30T13:09:09.202Z,4.50
2023-04-30T13:10:13.434Z,4.50
2023-04-30T13:11:15.608Z,4.70
2023-04-30T13:12:17.797Z,6.00
2023-04-30T13:13:19.893Z,4.90
2023-04-30T13:14:22.452Z,4.20
2023-04-30T13:15:24.975Z,4.40
2023-04-30T13:17:45.719Z,6.00
2023-04-30T13:19:07.285Z,4.40
2023-04-30T13:20:10.742Z,4.20
2023-04-30T13:21:13.383Z,4.70
2023-04-30T13:22:15.650Z,3.60
2023-04-30T13:23:18.005Z,4.10
2023-04-30T13:24:20.305Z,4.20
2023-04-30T13:25:22.453Z,3.20
2023-04-30T13:26:27.635Z,3.30
2023-04-30T13:27:29.905Z,5.00
2023-04-30T13:28:32.110Z,3.10
2023-04-30T13:29:34.343Z,4.10
2023-04-30T13:30:36.736Z,4.00
2023-04-30T13:31:38.969Z,4.20
2023-04-30T13:32:42.144Z,3.90
2023-04-30T13:33:46.143Z,3.90
2023-04-30T13:34:48.448Z,4.40
2023-04-30T13:35:50.853Z,4.70
2023-04-30T13:36:54.260Z,4.50
2023-04-30T13:37:58.807Z,5.30
2023-04-30T13:39:01.816Z,4.90
2023-04-30T13:41:23.364Z,4.40
2023-04-30T13:43:53.686Z,4.40
2023-04-30T13:44:55.963Z,4.50
2023-04-30T13:47:08.807Z,5.60
2023-04-30T13:48:11.550Z,4.50
2023-04-30T13:49:17.250Z,5.40
2023-04-30T13:51:32.037Z,6.40
2023-04-30T13:52:35.099Z,5.00
2023-04-30T13:53:37.289Z,5.36
2023-04-30T13:55:59.486Z,5.00
2023-04-30T13:57:02.840Z,5.20
2023-04-30T13:58:05.114Z,4.60
2023-04-30T13:59:08.712Z,4.20
2023-04-30T14:01:32.895Z,5.50
2023-04-30T14:02:36.351Z,4.20
2023-04-30T14:03:38.721Z,4.20
2023-04-30T14:04:43.099Z,5.60
2023-04-30T14:05:45.579Z,4.60
2023-04-30T14:06:48.172Z,5.20
2023-04-30T14:07:52.438Z,4.30
2023-04-30T14:08:54.505Z,4.80
2023-04-30T14:09:56.899Z,5.90
2023-04-30T14:11:00.922Z,5.40
2023-04-30T14:12:04.077Z,4.80
2023-04-30T14:13:06.537Z,5.30
2023-04-30T14:14:08.874Z,5.50
2023-04-30T14:15:11.491Z,5.80
2023-04-30T14:16:13.851Z,5.10
2023-04-30T14:17:18.410Z,5.70
2023-04-30T14:18:21.480Z,3.50
2023-04-30T14:19:26.000Z,5.20
2023-04-30T14:20:29.083Z,5.70
2023-04-30T14:21:31.352Z,6.30
2023-04-30T14:22:33.894Z,5.90
2023-04-30T14:23:36.075Z,6.20
2023-04-30T14:24:38.228Z,5.70
2023-04-30T14:25:42.746Z,4.90
2023-04-30T14:26:45.161Z,4.10
2023-04-30T14:27:48.150Z,4.50
2023-04-30T14:28:50.596Z,4.50
2023-04-30T14:29:53.504Z,4.90
2023-04-30T14:30:56.337Z,3.90
2023-04-30T14:31:58.994Z,4.70
2023-04-30T14:33:02.140Z,4.55
2023-04-30T14:34:04.742Z,5.30
2023-04-30T14:35:08.242Z,4.20
2023-04-30T14:36:12.475Z,4.90
2023-04-30T14:37:14.870Z,4.70
2023-04-30T14:38:17.014Z,5.10
2023-04-30T14:39:25.736Z,4.20
2023-04-30T14:40:29.213Z,3.90
2023-04-30T14:41:37.130Z,4.30
2023-04-30T14:42:40.362Z,4.30
2023-04-30T14:43:44.590Z,3.90
2023-04-30T14:44:47.717Z,5.30
2023-04-30T14:45:52.904Z,4.30
2023-04-30T14:46:55.071Z,5.20
2023-04-30T14:47:57.498Z,4.50
2023-04-30T14:49:00.173Z,4.40
2023-04-30T14:51:20.971Z,5.00
2023-04-30T14:52:23.131Z,5.10
2023-04-30T14:53:25.336Z,3.50
2023-04-30T14:54:29.666Z,3.00
2023-04-30T14:55:32.379Z,4.20
2023-04-30T14:56:35.429Z,4.50
2023-04-30T14:57:37.688Z,3.91
2023-04-30T14:58:40.834Z,3.60
2023-04-30T14:59:43.051Z,3.20
2023-04-30T15:00:45.520Z,2.00
2023-04-30T15:01:51.022Z,2.20
2023-04-30T15:02:53.928Z,2.50
2023-04-30T15:03:57.552Z,3.10
2023-04-30T15:05:00.438Z,3.10
2023-04-30T15:06:03.552Z,3.45
2023-04-30T15:07:08.867Z,2.60
2023-04-30T15:08:11.265Z,2.90
2023-04-30T15:09:15.495Z,3.30
2023-04-30T15:10:19.911Z,1.56
2023-04-30T15:11:25.422Z,3.10
2023-04-30T15:12:27.831Z,2.80
2023-04-30T15:14:48.006Z,3.10
2023-04-30T15:15:50.548Z,3.10
2023-04-30T15:16:53.094Z,5.64
2023-04-30T15:19:06.774Z,4.00
2023-04-30T15:20:12.002Z,4.80
2023-04-30T15:21:16.442Z,4.80
2023-04-30T15:22:19.352Z,4.00
2023-04-30T15:23:22.178Z,4.09
2023-04-30T15:24:24.431Z,4.50
2023-04-30T15:26:46.071Z,5.60
2023-04-30T15:29:20.368Z,5.40
2023-04-30T15:30:22.406Z,4.70
2023-04-30T15:31:24.539Z,4.80